createdAt,value
2022-09-25T00:01:26.012Z,3.60
2022-09-25T00:03:54.034Z,3.67
2022-09-25T00:06:24.442Z,3.90
2022-09-25T00:08:54.374Z,3.58
2022-09-25T00:11:24.000Z,3.47
2022-09-25T00:13:52.593Z,3.10
2022-09-25T00:16:23.031Z,2.75
2022-09-25T00:19:09.433Z,2.90
2022-09-25T00:21:38.386Z,2.83
2022-09-25T00:24:10.583Z,3.10
2022-09-25T00:26:40.686Z,3.00
2022-09-25T00:29:11.633Z,3.00
2022-09-25T00:31:39.648Z,2.78
2022-09-25T00:34:07.652Z,3.40
2022-09-25T00:36:36.869Z,3.58
2022-09-25T00:39:05.104Z,3.30
2022-09-25T00:41:35.422Z,3.17
2022-09-25T00:44:05.502Z,3.20
2022-09-25T00:46:36.768Z,3.40
2022-09-25T00:49:08.115Z,3.42
2022-09-25T00:51:41.372Z,3.20
2022-09-25T00:54:14.678Z,3.42
2022-09-25T00:56:46.100Z,3.28
2022-09-25T00:59:18.066Z,3.65
2022-09-25T01:01:46.722Z,3.65
2022-09-25T01:04:15.434Z,3.30
2022-09-25T01:06:43.626Z,4.00
2022-09-25T01:09:11.886Z,4.10
2022-09-25T01:11:40.770Z,3.70
2022-09-25T01:14:11.266Z,3.50
2022-09-25T01:16:45.330Z,3.83
2022-09-25T01:19:26.564Z,3.85
2022-09-25T01:21:58.562Z,3.97
2022-09-25T01:25:03.764Z,3.30
2022-09-25T01:27:47.510Z,3.75
2022-09-25T01:30:19.314Z,3.42
2022-09-25T01:32:57.722Z,3.85
2022-09-25T01:35:37.742Z,3.35
2022-09-25T01:38:15.422Z,3.00
2022-09-25T01:40:49.625Z,3.70
2022-09-25T01:43:21.534Z,3.05
2022-09-25T01:45:54.264Z,3.38
2022-09-25T01:48:27.317Z,3.15
2022-09-25T01:51:00.674Z,3.47
2022-09-25T01:53:37.906Z,3.17
2022-09-25T01:56:10.454Z,4.03
2022-09-25T01:58:47.761Z,4.00
2022-09-25T02:01:23.784Z,3.60
2022-09-25T02:03:57.992Z,3.45
2022-09-25T02:06:29.953Z,3.30
2022-09-25T02:09:03.517Z,3.50
2022-09-25T02:11:37.743Z,3.72
2022-09-25T02:14:13.631Z,4.05
2022-09-25T02:16:44.488Z,3.65
2022-09-25T02:19:32.763Z,3.88
2022-09-25T02:22:06.354Z,3.80
2022-09-25T02:24:39.559Z,4.50
2022-09-25T02:27:07.765Z,4.10
2022-09-25T02:29:36.305Z,3.80
2022-09-25T02:32:09.869Z,3.88
2022-09-25T02:34:38.153Z,3.80
2022-09-25T02:37:11.656Z,4.05
2022-09-25T02:39:40.678Z,3.80
2022-09-25T02:42:32.810Z,4.13
2022-09-25T02:45:10.010Z,4.40
2022-09-25T02:47:46.081Z,3.72
2022-09-25T02:50:21.416Z,4.10
2022-09-25T02:52:58.342Z,3.83
2022-09-25T02:55:34.277Z,4.20
2022-09-25T02:58:08.323Z,4.13
2022-09-25T03:00:38.807Z,4.30
2022-09-25T03:03:11.542Z,4.22
2022-09-25T03:05:39.936Z,4.07
2022-09-25T03:08:25.804Z,4.40
2022-09-25T03:10:54.076Z,3.90
2022-09-25T03:13:26.654Z,4.50
2022-09-25T03:15:59.028Z,4.25
2022-09-25T03:18:29.752Z,4.05
2022-09-25T03:20:57.565Z,3.90
2022-09-25T03:23:26.354Z,4.38
2022-09-25T03:25:55.925Z,4.10
2022-09-25T03:28:24.761Z,4.15
2022-09-25T03:31:01.564Z,4.15
2022-09-25T03:33:34.541Z,3.80
2022-09-25T03:36:07.764Z,4.07
2022-09-25T03:38:35.681Z,4.55
2022-09-25T03:41:06.768Z,4.32
2022-09-25T03:43:36.758Z,4.53
2022-09-25T03:46:04.991Z,4.70
2022-09-25T03:48:35.147Z,5.25
2022-09-25T03:51:04.047Z,5.35
2022-09-25T03:53:33.484Z,5.05
2022-09-25T03:56:01.914Z,5.32
2022-09-25T03:58:30.631Z,5.15
2022-09-25T04:00:59.070Z,5.22
2022-09-25T04:03:29.069Z,5.53
2022-09-25T04:06:00.149Z,5.90
2022-09-25T04:08:29.342Z,5.65
2022-09-25T04:10:59.441Z,6.10
2022-09-25T04:13:30.166Z,6.10
2022-09-25T04:15:59.215Z,5.63
2022-09-25T04:18:28.232Z,5.38
2022-09-25T04:20:56.513Z,5.75
2022-09-25T04:23:25.887Z,5.55
2022-09-25T04:25:53.767Z,5.78
2022-09-25T04:28:23.487Z,5.68
2022-09-25T04:30:52.156Z,5.95
2022-09-25T04:33:38.329Z,5.88
2022-09-25T04:36:06.720Z,6.15
2022-09-25T04:38:36.098Z,6.97
2022-09-25T04:41:05.801Z,6.38
2022-09-25T04:43:35.383Z,5.90
2022-09-25T04:46:03.963Z,6.10
2022-09-25T04:48:32.811Z,5.38
2022-09-25T04:51:00.951Z,5.40
2022-09-25T04:53:30.485Z,6.03
2022-09-25T04:56:04.025Z,5.80
2022-09-25T04:58:32.150Z,6.40
2022-09-25T05:01:04.076Z,5.88
2022-09-25T05:03:32.336Z,6.00
2022-09-25T05:06:00.236Z,6.32
2022-09-25T05:08:28.417Z,5.63
2022-09-25T05:10:56.521Z,5.60
2022-09-25T05:13:25.766Z,5.95
2022-09-25T05:15:56.011Z,5.43
2022-09-25T05:18:25.289Z,5.32
2022-09-25T05:20:54.319Z,5.10
2022-09-25T05:23:23.561Z,5.15
2022-09-25T05:25:55.264Z,5.13
2022-09-25T05:28:23.676Z,4.93
2022-09-25T05:30:53.574Z,5.15
2022-09-25T05:33:21.657Z,5.13
2022-09-25T05:35:49.658Z,4.60
2022-09-25T05:38:17.529Z,4.90
2022-09-25T05:40:45.584Z,4.40
2022-09-25T05:43:13.607Z,5.03
2022-09-25T05:45:41.632Z,4.97
2022-09-25T05:48:11.171Z,5.25
2022-09-25T05:50:39.125Z,4.78
2022-09-25T05:53:07.033Z,4.78
2022-09-25T05:55:35.268Z,4.85
2022-09-25T05:58:04.162Z,5.30
2022-09-25T06:00:33.293Z,4.40
2022-09-25T06:03:01.670Z,4.20
2022-09-25T06:05:31.299Z,4.30
2022-09-25T06:07:59.258Z,4.20
2022-09-25T06:10:27.791Z,4.55
2022-09-25T06:12:58.997Z,4.40
2022-09-25T06:15:27.879Z,5.22
2022-09-25T06:17:56.294Z,5.32
2022-09-25T06:20:25.153Z,4.82
2022-09-25T06:22:55.126Z,4.25
2022-09-25T06:25:24.768Z,3.67
2022-09-25T06:27:54.240Z,3.88
2022-09-25T06:30:22.366Z,4.05
2022-09-25T06:32:51.685Z,3.88
2022-09-25T06:35:19.595Z,4.28
2022-09-25T06:37:47.475Z,3.83
2022-09-25T06:40:17.333Z,3.08
2022-09-25T06:42:46.362Z,3.70
2022-09-25T06:45:14.346Z,3.67
2022-09-25T06:47:42.596Z,3.30
2022-09-25T06:50:12.358Z,3.22
2022-09-25T06:52:43.867Z,3.30
2022-09-25T06:55:12.447Z,3.38
2022-09-25T06:57:41.651Z,3.05
2022-09-25T07:00:10.887Z,2.92
2022-09-25T07:02:56.434Z,3.22
2022-09-25T07:05:24.575Z,3.35
2022-09-25T07:07:52.551Z,3.05
2022-09-25T07:10:20.532Z,3.53
2022-09-25T07:12:49.786Z,2.92
2022-09-25T07:15:18.786Z,3.00
2022-09-25T07:17:47.098Z,2.65
2022-09-25T07:20:15.420Z,2.00
2022-09-25T07:22:43.857Z,1.73
2022-09-25T07:25:13.720Z,2.15
2022-09-25T07:27:41.665Z,2.25
2022-09-25T07:30:12.157Z,2.03
2022-09-25T07:32:40.127Z,1.67
2022-09-25T07:35:08.850Z,1.60
2022-09-25T07:37:37.247Z,1.80
2022-09-25T07:40:05.756Z,1.73
2022-09-25T07:42:33.686Z,1.58
2022-09-25T07:45:01.580Z,1.63
2022-09-25T07:47:30.766Z,1.90
2022-09-25T07:49:58.837Z,1.55
2022-09-25T07:52:26.984Z,1.50
2022-09-25T07:54:54.864Z,1.17
2022-09-25T07:57:22.931Z,1.40
2022-09-25T07:59:50.910Z,1.20
2022-09-25T08:02:18.840Z,1.40
2022-09-25T08:04:48.450Z,1.48
2022-09-25T08:07:16.437Z,1.50
2022-09-25T08:09:44.241Z,1.40
2022-09-25T08:12:14.121Z,1.50
2022-09-25T08:14:42.880Z,1.52
2022-09-25T08:17:10.742Z,1.40
2022-09-25T08:19:38.655Z,1.25
2022-09-25T08:22:07.983Z,1.42
2022-09-25T08:24:35.902Z,1.50
2022-09-25T08:27:03.931Z,1.30
2022-09-25T08:29:31.938Z,1.40
2022-09-25T08:31:59.825Z,1.20
2022-09-25T08:34:40.534Z,1.08
2022-09-25T08:37:10.338Z,1.17
2022-09-25T08:39:38.330Z,1.30
2022-09-25T08:42:06.744Z,1.20
2022-09-25T08:44:38.987Z,1.20
2022-09-25T08:47:33.317Z,1.25
2022-09-25T08:50:08.162Z,1.20
2022-09-25T08:52:41.321Z,1.00
2022-09-25T08:55:14.792Z,1.10
2022-09-25T08:57:45.458Z,1.38
2022-09-25T09:00:20.226Z,1.15
2022-09-25T09:02:56.204Z,1.50
2022-09-25T09:05:29.269Z,0.95
2022-09-25T09:08:03.623Z,1.25
2022-09-25T09:10:36.430Z,1.05
2022-09-25T09:13:15.801Z,1.17
2022-09-25T09:15:50.709Z,1.30
2022-09-25T09:18:23.578Z,1.13
2022-09-25T09:20:54.677Z,1.10
2022-09-25T09:23:25.731Z,1.00
2022-09-25T09:26:17.132Z,0.90
2022-09-25T09:29:07.529Z,1.30
2022-09-25T09:31:44.832Z,0.90
2022-09-25T09:34:53.522Z,0.73
2022-09-25T09:37:31.697Z,0.90
2022-09-25T09:40:17.990Z,0.85
2022-09-25T09:42:53.776Z,0.90
2022-09-25T09:45:28.894Z,0.85
2022-09-25T09:48:06.413Z,0.77
2022-09-25T09:50:43.895Z,0.80
2022-09-25T09:53:22.264Z,1.00
2022-09-25T09:55:55.204Z,1.08
2022-09-25T09:58:29.198Z,1.13
2022-09-25T10:01:01.075Z,1.00
2022-09-25T10:03:39.336Z,1.00
2022-09-25T10:06:12.662Z,1.05
2022-09-25T10:08:42.226Z,1.13
2022-09-25T10:11:17.515Z,1.20
2022-09-25T10:13:46.399Z,1.27
2022-09-25T10:16:17.357Z,1.15
2022-09-25T10:18:49.634Z,1.30
2022-09-25T10:21:21.349Z,1.25
2022-09-25T10:23:50.943Z,0.90
2022-09-25T10:26:29.004Z,0.98
2022-09-25T10:28:58.785Z,0.98
2022-09-25T10:31:29.891Z,1.00
2022-09-25T10:34:07.839Z,1.08
2022-09-25T10:36:40.007Z,0.80
2022-09-25T10:39:43.521Z,0.90
2022-09-25T10:42:37.291Z,1.10
2022-09-25T10:45:27.889Z,0.80
2022-09-25T10:48:09.734Z,1.15
2022-09-25T10:50:38.259Z,1.00
2022-09-25T10:53:07.727Z,0.90
2022-09-25T10:55:37.690Z,0.90
2022-09-25T10:58:21.406Z,1.00
2022-09-25T11:00:55.858Z,0.90
2022-09-25T11:03:26.557Z,1.10
2022-09-25T11:05:56.511Z,1.20
2022-09-25T11:08:30.250Z,1.00
2022-09-25T11:10:59.785Z,1.30
2022-09-25T11:13:37.176Z,1.00
2022-09-25T11:16:09.582Z,1.23
2022-09-25T11:18:41.162Z,1.13
2022-09-25T11:21:20.546Z,0.80
2022-09-25T11:24:04.733Z,1.92
2022-09-25T11:26:37.768Z,1.10
2022-09-25T11:29:16.823Z,0.98
2022-09-25T11:31:50.314Z,0.90
2022-09-25T11:34:33.794Z,0.80
2022-09-25T11:37:07.709Z,0.90
2022-09-25T11:40:01.277Z,0.88
2022-09-25T11:42:35.075Z,1.30
2022-09-25T11:45:09.392Z,1.05
2022-09-25T11:47:44.566Z,1.65
2022-09-25T11:50:16.555Z,1.00
2022-09-25T11:52:54.399Z,1.02
2022-09-25T11:55:47.183Z,1.23
2022-09-25T11:58:30.155Z,0.98
2022-09-25T12:01:08.366Z,0.75
2022-09-25T12:03:52.166Z,1.00
2022-09-25T12:06:38.415Z,1.05
2022-09-25T12:09:28.146Z,0.90
2022-09-25T12:12:03.527Z,1.00
2022-09-25T12:14:40.271Z,1.42
2022-09-25T12:17:18.670Z,0.90
2022-09-25T12:19:55.738Z,1.13
2022-09-25T12:22:36.057Z,1.08
2022-09-25T12:25:13.785Z,1.00
2022-09-25T12:27:51.196Z,2.47
2022-09-25T12:30:21.464Z,2.45
2022-09-25T12:33:16.837Z,1.23
2022-09-25T12:35:50.411Z,1.30
2022-09-25T12:38:27.460Z,1.42
2022-09-25T12:41:02.897Z,1.35
2022-09-25T12:43:36.668Z,1.40
2022-09-25T12:46:15.069Z,1.20
2022-09-25T12:48:50.644Z,1.13
2022-09-25T12:51:23.795Z,2.42
2022-09-25T12:53:57.112Z,1.20
2022-09-25T12:56:30.218Z,1.20
2022-09-25T12:59:05.983Z,1.20
2022-09-25T13:01:41.447Z,1.10
2022-09-25T13:04:34.066Z,1.42
2022-09-25T13:07:10.842Z,1.33
2022-09-25T13:09:45.092Z,1.20
2022-09-25T13:12:33.227Z,1.10
2022-09-25T13:15:06.989Z,1.10
2022-09-25T13:17:35.762Z,0.90
2022-09-25T13:20:42.486Z,1.00
2022-09-25T13:23:15.148Z,0.90
2022-09-25T13:25:46.640Z,1.08
2022-09-25T13:28:21.539Z,1.10
2022-09-25T13:31:09.228Z,1.40
2022-09-25T13:33:49.498Z,1.17
2022-09-25T13:36:47.973Z,1.35
2022-09-25T13:39:40.064Z,1.20
2022-09-25T13:42:14.271Z,1.00
2022-09-25T13:45:26.187Z,1.10
2022-09-25T13:48:36.179Z,1.17
2022-09-25T13:51:34.569Z,0.93
2022-09-25T13:54:05.309Z,1.10
2022-09-25T13:56:59.218Z,1.20
2022-09-25T13:59:38.632Z,1.17
2022-09-25T14:02:49.277Z,1.80
2022-09-25T14:05:21.243Z,1.40
2022-09-25T14:07:54.914Z,1.45
2022-09-25T14:10:24.092Z,1.10
2022-09-25T14:12:54.206Z,1.05
2022-09-25T14:15:26.949Z,1.02
2022-09-25T14:17:57.313Z,1.00
2022-09-25T14:20:37.038Z,0.98
2022-09-25T14:23:08.437Z,1.10
2022-09-25T14:25:39.166Z,1.00
2022-09-25T14:28:20.944Z,1.00
2022-09-25T14:31:04.509Z,0.98
2022-09-25T14:34:04.165Z,1.10
2022-09-25T14:36:42.097Z,0.90
2022-09-25T14:39:26.355Z,1.00
2022-09-25T14:42:23.641Z,1.00
2022-09-25T14:45:18.026Z,1.00
2022-09-25T14:47:49.524Z,1.10
2022-09-25T14:50:23.411Z,0.90
2022-09-25T14:52:55.758Z,0.90
2022-09-25T14:55:24.646Z,0.90
2022-09-25T14:57:53.033Z,1.17
2022-09-25T15:00:24.678Z,1.00
2022-09-25T15:02:55.741Z,1.10
2022-09-25T15:05:32.978Z,1.10
2022-09-25T15:08:03.185Z,1.20
2022-09-25T15:10:34.313Z,1.10
2022-09-25T15:13:15.876Z,1.38
2022-09-25T15:16:07.472Z,1.00
2022-09-25T15:18:38.640Z,1.02
2022-09-25T15:21:09.807Z,1.00
2022-09-25T15:23:38.988Z,0.93
2022-09-25T15:26:08.956Z,1.00
2022-09-25T15:28:40.246Z,1.05
2022-09-25T15:31:09.603Z,1.35
2022-09-25T15:33:39.131Z,1.33
2022-09-25T15:36:17.002Z,1.63
2022-09-25T15:38:45.136Z,1.50
2022-09-25T15:41:16.482Z,1.45
2022-09-25T15:43:44.534Z,1.30
2022-09-25T15:46:37.893Z,1.05
2022-09-25T15:49:07.074Z,1.30
2022-09-25T15:51:37.221Z,1.33
2022-09-25T15:54:20.182Z,1.10
2022-09-25T15:56:52.112Z,1.15
2022-09-25T15:59:23.024Z,1.30
2022-09-25T16:02:10.574Z,1.33
2022-09-25T16:04:49.554Z,1.38
2022-09-25T16:07:26.194Z,1.20
2022-09-25T16:09:56.748Z,1.23
2022-09-25T16:12:29.814Z,1.13
2022-09-25T16:14:59.537Z,1.63
2022-09-25T16:17:33.575Z,1.35
2022-09-25T16:20:09.036Z,1.30
2022-09-25T16:22:42.801Z,1.27
2022-09-25T16:25:21.341Z,1.83
2022-09-25T16:27:49.753Z,2.00
2022-09-25T16:30:20.729Z,1.67
2022-09-25T16:32:52.506Z,1.50
2022-09-25T16:35:57.441Z,1.60
2022-09-25T16:38:28.952Z,1.85
2022-09-25T16:41:05.290Z,1.70
2022-09-25T16:43:35.759Z,1.52
2022-09-25T16:46:05.957Z,1.75
2022-09-25T16:48:39.701Z,1.63
2022-09-25T16:51:12.260Z,2.05
2022-09-25T16:53:40.594Z,2.50
2022-09-25T16:56:08.432Z,1.92
2022-09-25T16:58:37.501Z,2.13
2022-09-25T17:01:05.759Z,2.25
2022-09-25T17:03:49.890Z,1.90
2022-09-25T17:06:19.614Z,2.00
2022-09-25T17:08:48.307Z,1.95
2022-09-25T17:11:17.682Z,1.92
2022-09-25T17:13:46.759Z,1.83
2022-09-25T17:16:14.819Z,2.17
2022-09-25T17:18:43.175Z,2.00
2022-09-25T17:21:15.240Z,2.03
2022-09-25T17:23:45.229Z,2.00
2022-09-25T17:26:18.969Z,2.10
2022-09-25T17:28:47.210Z,1.85
2022-09-25T17:31:18.339Z,2.17
2022-09-25T17:33:46.318Z,2.30
2022-09-25T17:36:14.812Z,2.30
2022-09-25T17:38:44.359Z,2.30
2022-09-25T17:41:20.518Z,2.63
2022-09-25T17:43:49.517Z,2.40
2022-09-25T17:46:21.481Z,2.63
2022-09-25T17:48:54.271Z,2.75
2022-09-25T17:51:24.687Z,2.78
2022-09-25T17:53:56.039Z,2.47
2022-09-25T17:56:24.802Z,3.13
2022-09-25T17:58:55.059Z,3.15
2022-09-25T18:01:24.648Z,3.05
2022-09-25T18:03:53.774Z,3.20
2022-09-25T18:06:22.105Z,2.90
2022-09-25T18:08:50.993Z,3.63
2022-09-25T18:11:20.680Z,2.90
2022-09-25T18:13:48.983Z,3.47
2022-09-25T18:16:20.666Z,3.67
2022-09-25T18:19:06.593Z,3.88
2022-09-25T18:21:48.389Z,3.47
2022-09-25T18:24:16.703Z,3.60
2022-09-25T18:26:46.698Z,3.50
2022-09-25T18:29:16.954Z,3.67
2022-09-25T18:31:46.612Z,3.80
2022-09-25T18:34:14.599Z,3.65
2022-09-25T18:36:42.973Z,3.88
2022-09-25T18:39:14.853Z,3.50
2022-09-25T18:41:47.925Z,3.60
2022-09-25T18:44:17.920Z,3.50
2022-09-25T18:46:46.030Z,3.80
2022-09-25T18:49:14.161Z,3.67
2022-09-25T18:51:42.271Z,3.47
2022-09-25T18:54:13.808Z,3.55
2022-09-25T18:56:41.994Z,4.32
2022-09-25T18:59:11.459Z,3.78
2022-09-25T19:01:41.063Z,3.78
2022-09-25T19:04:10.014Z,4.20
2022-09-25T19:06:38.159Z,4.50
2022-09-25T19:09:06.071Z,4.05
2022-09-25T19:11:34.015Z,5.07
2022-09-25T19:14:04.950Z,4.15
2022-09-25T19:16:37.991Z,4.90
2022-09-25T19:19:06.350Z,4.75
2022-09-25T19:21:34.272Z,4.68
2022-09-25T19:24:02.785Z,5.00
2022-09-25T19:26:31.163Z,4.97
2022-09-25T19:28:59.079Z,4.95
2022-09-25T19:31:28.238Z,4.82
2022-09-25T19:33:58.125Z,5.05
2022-09-25T19:36:30.278Z,5.30
2022-09-25T19:38:59.654Z,4.68
2022-09-25T19:41:29.904Z,4.72
2022-09-25T19:44:00.459Z,4.95
2022-09-25T19:46:29.771Z,4.88
2022-09-25T19:48:59.556Z,4.93
2022-09-25T19:51:27.893Z,5.30
2022-09-25T19:53:55.847Z,5.07
2022-09-25T19:56:24.843Z,5.20
2022-09-25T19:58:52.826Z,5.35
2022-09-25T20:01:23.231Z,5.97
2022-09-25T20:03:51.435Z,5.60
2022-09-25T20:06:21.038Z,5.35
2022-09-25T20:08:48.903Z,6.03
2022-09-25T20:11:18.924Z,6.35
2022-09-25T20:13:48.222Z,6.13
2022-09-25T20:16:18.146Z,6.28
2022-09-25T20:18:49.067Z,6.30
2022-09-25T20:21:17.723Z,6.85
2022-09-25T20:23:51.086Z,6.50
2022-09-25T20:26:20.008Z,7.15
2022-09-25T20:28:48.082Z,7.00
2022-09-25T20:31:16.929Z,6.90
2022-09-25T20:33:45.016Z,6.75
2022-09-25T20:36:15.247Z,7.03
2022-09-25T20:38:44.350Z,6.47
2022-09-25T20:41:14.477Z,6.95
2022-09-25T20:43:44.177Z,7.05
2022-09-25T20:46:14.076Z,6.57
2022-09-25T20:48:45.655Z,6.60
2022-09-25T20:51:16.175Z,6.75
2022-09-25T20:53:44.543Z,6.68
2022-09-25T20:56:15.977Z,7.15
2022-09-25T20:58:47.386Z,7.80
2022-09-25T21:01:18.943Z,8.07
2022-09-25T21:03:49.354Z,7.45
2022-09-25T21:06:18.525Z,7.60
2022-09-25T21:08:47.398Z,8.27
2022-09-25T21:11:16.706Z,8.68
2022-09-25T21:13:44.533Z,7.95
2022-09-25T21:16:14.325Z,7.32
2022-09-25T21:18:43.539Z,7.07
2022-09-25T21:21:13.893Z,7.40
2022-09-25T21:23:43.209Z,7.80
2022-09-25T21:26:13.717Z,7.32
2022-09-25T21:28:43.943Z,7.88
2022-09-25T21:31:14.563Z,7.97
2022-09-25T21:33:42.806Z,8.20
2022-09-25T21:36:11.338Z,8.05
2022-09-25T21:38:40.912Z,7.85
2022-09-25T21:41:10.650Z,7.65
2022-09-25T21:43:39.041Z,7.97
2022-09-25T21:46:13.072Z,7.32
2022-09-25T21:48:44.885Z,7.10
2022-09-25T21:51:14.727Z,7.72
2022-09-25T21:53:42.875Z,7.97
2022-09-25T21:56:12.267Z,7.35
2022-09-25T21:58:40.603Z,8.63
2022-09-25T22:01:12.764Z,7.47
2022-09-25T22:03:42.567Z,7.55
2022-09-25T22:06:12.484Z,7.28
2022-09-25T22:08:42.936Z,8.02
2022-09-25T22:11:12.281Z,6.72
2022-09-25T22:13:42.066Z,7.10
2022-09-25T22:16:15.601Z,6.55
2022-09-25T22:18:45.497Z,7.32
2022-09-25T22:21:14.553Z,7.55
2022-09-25T22:23:43.393Z,8.00
2022-09-25T22:26:12.067Z,7.03
2022-09-25T22:28:39.993Z,7.80
2022-09-25T22:31:09.672Z,7.45
2022-09-25T22:33:39.391Z,7.05
2022-09-25T22:36:09.382Z,6.03
2022-09-25T22:38:37.967Z,6.78
2022-09-25T22:41:07.715Z,6.53
2022-09-25T22:43:36.221Z,6.65
2022-09-25T22:46:04.954Z,6.93
2022-09-25T22:48:33.040Z,6.43
2022-09-25T22:51:04.169Z,6.05
2022-09-25T22:53:34.513Z,6.55
2022-09-25T22:56:10.467Z,6.75
2022-09-25T22:58:38.516Z,5.90
2022-09-25T23:01:08.375Z,5.70
2022-09-25T23:03:36.395Z,5.55
2022-09-25T23:06:06.001Z,5.22
2022-09-25T23:08:34.006Z,4.55
2022-09-25T23:11:07.522Z,5.15
2022-09-25T23:13:37.068Z,4.63
2022-09-25T23:16:07.059Z,4.57
2022-09-25T23:18:36.132Z,4.30
2022-09-25T23:21:06.496Z,5.40
2022-09-25T23:23:34.366Z,5.32
2022-09-25T23:26:06.254Z,6.10
2022-09-25T23:28:35.266Z,6.40
2022-09-25T23:31:11.719Z,6.65
2022-09-25T23:33:40.847Z,7.38
2022-09-25T23:36:12.698Z,7.03
2022-09-25T23:38:40.950Z,7.72
2022-09-25T23:41:16.322Z,7.30
2022-09-25T23:43:45.187Z,9.30
2022-09-25T23:46:13.991Z,8.35
2022-09-25T23:48:42.049Z,8.38
2022-09-25T23:51:11.929Z,8.40
2022-09-25T23:53:40.887Z,8.30
2022-09-25T23:56:09.995Z,7.80
2022-09-25T23:58:37.941Z,8.00
